Capitol Logistics 321


KMCI
Kansas City International Airport
Kansas City, Missouri, US
KRFD
Chicago/Rockford International Airport
Rockford, Illinois, US

Activity Log

Date Flight Route Aircraft Duration
02/04/2020 CPX321 ROYAL9 BODYN MZV RFD B763 1h 08m
09/18/2019 CPX321 ROYAL9 BODYN MZV RFD B763 0h 57m
04/14/2019 CPX321 KIVDE V502 IRK J232 MZV B763 1h 12m
04/03/2019 CPX321 ROYAL9 BODYN MZV RFD B763 1h 04m

Route Details

Aircraft Information
Primary: Boeing 767-300BDSF
Backup: Boeing 757-200SF
Route Data
Distance: 309nm
Sched. Duration: 1h 10m
Avg. Duration: 0h 95m (-15m)
Times Flown: 4
Recm'd Route: ROYAL9 BODYN MZV RFD
Planned Altitude: 33,000ft
Origin Wx: KMCI 181553Z 01015KT 10SM FEW150 01/M06 A3034 RMK AO2 SLP282 T00111056
Dest. Wx: KRFD 181554Z 31013G22KT 10SM OVC021 00/M04 A3018 RMK AO2 SLP228 T00001044
Notes:

Financial History
Total Freight: 353,832lbs
Average Load: 88,458lbs/flt
Fuel Used: 40,958lbs
Avg. Fuel Used: 10,240lbs/flt
Fuel Expense: $45,054
Avg. Fuel Expense: $11,263
Avg. Fuel Cost: $1.10/lbs
Total Gross Income: $447,367
Pilot Pay: $846
Total Expenses: $48,524
Total Revenue: $352,876
Average Revenue: $111,841.68